Time;durP1;ratioP1;P1;durP2;ratioP2;P2;SDS_P1;SDS_P2;PMS_P1;PMS_P2;Temp;Humidity;BMP_temperature;BMP_pressure;BME280_temperature;BME280_humidity;BME280_pressure;Samples;Min_cycle;Max_cycle;Signal;HPM_P1;HPM_P2
2023/10/05 00:04:39;;;;;;;7.72;2.45;;;16.20;99.90;;;;;;5072995;28;20025;-72
2023/10/05 00:07:26;;;;;;;7.90;2.13;;;16.20;99.90;;;;;;5073141;28;20076;-72
2023/10/05 00:09:52;;;;;;;11.00;2.30;;;16.30;99.90;;;;;;5072748;28;20475;-72
2023/10/05 00:12:24;;;;;;;12.88;2.60;;;16.30;99.90;;;;;;5073092;28;20111;-72
2023/10/05 00:17:30;;;;;;;15.32;2.72;;;16.40;99.90;;;;;;5073314;28;20476;-72
2023/10/05 00:19:56;;;;;;;13.05;2.47;;;16.40;99.90;;;;;;5072868;28;20070;-72
2023/10/05 00:22:22;;;;;;;12.57;2.58;;;16.40;99.90;;;;;;5072693;28;20021;-72
2023/10/05 00:24:49;;;;;;;10.27;2.22;;;16.40;99.90;;;;;;5073308;28;20028;-72
2023/10/05 00:27:15;;;;;;;13.75;2.47;;;16.50;99.90;;;;;;5072073;28;20099;-72
2023/10/05 00:29:41;;;;;;;13.27;2.33;;;16.50;99.90;;;;;;5072889;28;20024;-72
2023/10/05 00:32:19;;;;;;;14.27;2.80;;;16.40;99.90;;;;;;5072467;28;20013;-72
2023/10/05 00:34:51;;;;;;;12.70;2.65;;;16.50;99.90;;;;;;5072594;28;20393;-72
2023/10/05 00:37:17;;;;;;;12.25;2.67;;;16.50;99.90;;;;;;5071290;28;20079;-72
2023/10/05 00:39:47;;;;;;;13.50;2.70;;;16.50;99.90;;;;;;5072791;28;20108;-72
2023/10/05 00:42:15;;;;;;;9.35;2.45;;;16.50;99.90;;;;;;5072589;28;20028;-72
2023/10/05 00:44:42;;;;;;;10.38;2.53;;;16.50;99.90;;;;;;5071113;28;20067;-72
2023/10/05 00:47:09;;;;;;;16.35;2.70;;;16.50;99.90;;;;;;5072335;28;20066;-72
2023/10/05 00:49:45;;;;;;;15.38;2.78;;;16.50;99.90;;;;;;5072602;28;20375;-72
2023/10/05 00:52:15;;;;;;;8.75;2.45;;;16.50;99.90;;;;;;5070449;28;20035;-72
2023/10/05 00:54:50;;;;;;;9.65;2.25;;;16.50;99.90;;;;;;5072285;28;20392;-73
2023/10/05 00:57:22;;;;;;;15.98;2.50;;;16.50;99.90;;;;;;5072373;28;20025;-72
2023/10/05 01:02:35;;;;;;;16.58;2.35;;;16.40;99.90;;;;;;5068952;28;20036;-72
2023/10/05 01:05:14;;;;;;;15.50;2.30;;;16.40;99.90;;;;;;5072363;28;20392;-72
2023/10/05 01:10:28;;;;;;;14.13;2.55;;;16.40;99.90;;;;;;5067314;28;20159;-72
2023/10/05 01:12:54;;;;;;;14.32;2.75;;;16.50;99.90;;;;;;5062198;28;20368;-72
2023/10/05 01:15:30;;;;;;;13.80;2.90;;;16.50;99.90;;;;;;5071949;28;20364;-71
2023/10/05 01:17:56;;;;;;;17.90;2.83;;;16.40;99.90;;;;;;5072214;28;20099;-72
2023/10/05 01:20:22;;;;;;;14.90;2.50;;;16.40;99.90;;;;;;5071639;28;20127;-72
2023/10/05 01:22:49;;;;;;;10.80;2.60;;;16.40;99.90;;;;;;5072124;28;20019;-72
2023/10/05 01:25:15;;;;;;;12.90;2.72;;;16.50;99.90;;;;;;5069964;28;20189;-72
2023/10/05 01:27:45;;;;;;;13.80;2.67;;;16.50;99.90;;;;;;5069181;28;20056;-72
2023/10/05 01:30:15;;;;;;;11.85;2.65;;;16.40;99.90;;;;;;5071769;28;20024;-72
2023/10/05 01:32:41;;;;;;;11.48;2.22;;;16.50;99.90;;;;;;5071831;28;20107;-72
2023/10/05 01:35:12;;;;;;;10.02;2.72;;;16.50;99.90;;;;;;5071742;28;20044;-72
2023/10/05 01:37:44;;;;;;;13.80;2.63;;;16.40;99.90;;;;;;5071616;28;20414;-72
2023/10/05 01:42:47;;;;;;;14.27;2.55;;;16.40;99.90;;;;;;5071439;28;20038;-72
2023/10/05 01:45:22;;;;;;;15.18;2.72;;;16.40;99.90;;;;;;5071133;28;20062;-72
2023/10/05 01:47:49;;;;;;;12.95;2.58;;;16.40;99.90;;;;;;5071700;28;20056;-72
2023/10/05 01:50:19;;;;;;;10.75;2.40;;;16.40;99.90;;;;;;5071683;28;20028;-72
2023/10/05 01:53:01;;;;;;;13.80;3.17;;;16.40;99.90;;;;;;5071264;28;20032;-72
2023/10/05 01:55:27;;;;;;;10.50;2.55;;;16.40;99.90;;;;;;5061114;28;20025;-72
2023/10/05 01:57:54;;;;;;;13.45;2.67;;;16.40;99.90;;;;;;5069919;28;20078;-72
2023/10/05 02:00:22;;;;;;;11.40;2.50;;;16.40;99.90;;;;;;5071160;28;20032;-72
2023/10/05 02:02:48;;;;;;;15.20;2.53;;;16.40;99.90;;;;;;5071347;28;20042;-72
2023/10/05 02:05:14;;;;;;;11.65;2.42;;;16.40;99.90;;;;;;5070552;28;20456;-72
2023/10/05 02:07:40;;;;;;;9.68;2.28;;;16.40;99.90;;;;;;5070806;28;20490;-72
2023/10/05 02:10:10;;;;;;;13.43;2.55;;;16.40;99.90;;;;;;5070403;28;20017;-72
2023/10/05 02:12:36;;;;;;;10.88;2.70;;;16.50;99.90;;;;;;5070662;28;20506;-72
2023/10/05 02:15:13;;;;;;;15.48;2.70;;;16.50;99.90;;;;;;5070787;28;20035;-72
2023/10/05 02:17:42;;;;;;;9.02;2.30;;;16.50;99.90;;;;;;5070760;28;20020;-72
2023/10/05 02:20:30;;;;;;;14.20;2.80;;;16.50;99.90;;;;;;5070979;28;20515;-72
2023/10/05 02:22:58;;;;;;;13.35;2.90;;;16.50;99.90;;;;;;5070710;28;20281;-72
2023/10/05 02:25:33;;;;;;;9.75;2.92;;;16.50;99.90;;;;;;5070825;28;20146;-72
2023/10/05 02:27:59;;;;;;;12.52;2.85;;;16.50;99.90;;;;;;5070847;28;20370;-72
2023/10/05 02:30:27;;;;;;;10.70;2.60;;;16.50;99.90;;;;;;5071025;28;20032;-72
2023/10/05 02:32:58;;;;;;;11.68;2.70;;;16.50;99.90;;;;;;5070528;28;20050;-72
2023/10/05 02:35:30;;;;;;;13.32;2.78;;;16.50;99.90;;;;;;5070646;28;20094;-72
2023/10/05 02:38:04;;;;;;;13.90;2.58;;;16.50;99.90;;;;;;5070790;28;20136;-72
2023/10/05 02:40:39;;;;;;;16.85;2.75;;;16.50;99.90;;;;;;5070569;28;21667;-72
2023/10/05 02:43:07;;;;;;;10.73;2.83;;;16.40;99.90;;;;;;5070646;28;20483;-72
2023/10/05 02:45:36;;;;;;;8.82;2.75;;;16.40;99.90;;;;;;5071013;28;20021;-72
2023/10/05 02:48:06;;;;;;;15.90;2.72;;;16.40;99.90;;;;;;5070245;28;20104;-72
2023/10/05 02:50:37;;;;;;;16.73;2.70;;;16.40;99.90;;;;;;5069585;28;20032;-72
2023/10/05 02:53:06;;;;;;;13.68;2.50;;;16.30;99.90;;;;;;5070208;28;20460;-72
2023/10/05 02:55:36;;;;;;;13.98;2.88;;;16.30;99.90;;;;;;5065204;28;20020;-72
2023/10/05 02:58:06;;;;;;;12.15;2.78;;;16.30;99.90;;;;;;5070619;28;20428;-72
2023/10/05 03:00:35;;;;;;;15.50;2.90;;;16.20;99.90;;;;;;5061294;28;20032;-72
2023/10/05 03:03:05;;;;;;;14.27;2.65;;;16.20;99.90;;;;;;5070040;28;20028;-72
2023/10/05 03:05:35;;;;;;;14.48;2.70;;;16.20;99.90;;;;;;5070229;28;20110;-72
2023/10/05 03:08:00;;;;;;;13.15;2.60;;;16.10;99.90;;;;;;5070495;28;20024;-72
2023/10/05 03:10:27;;;;;;;11.20;2.28;;;16.10;99.90;;;;;;5070195;28;20076;-72
2023/10/05 03:12:52;;;;;;;12.25;2.40;;;16.10;99.90;;;;;;5070212;28;20023;-72
2023/10/05 03:15:23;;;;;;;18.02;2.92;;;16.00;99.90;;;;;;5070381;28;20107;-72
2023/10/05 03:17:51;;;;;;;13.25;2.60;;;16.00;99.90;;;;;;5070144;28;20535;-72
2023/10/05 03:20:18;;;;;;;13.75;2.88;;;16.00;99.90;;;;;;5070285;28;20041;-72
2023/10/05 03:22:46;;;;;;;13.93;2.70;;;16.00;99.90;;;;;;5069335;28;20440;-72
2023/10/05 03:25:15;;;;;;;13.57;2.58;;;15.90;99.90;;;;;;5070624;28;20069;-72
2023/10/05 03:27:41;;;;;;;14.40;3.10;;;15.90;99.90;;;;;;5069811;28;20044;-72
2023/10/05 03:30:10;;;;;;;13.15;2.88;;;15.90;99.90;;;;;;5070289;28;20500;-72
2023/10/05 03:32:35;;;;;;;12.13;2.63;;;15.80;99.90;;;;;;5070253;28;20104;-72
2023/10/05 03:35:03;;;;;;;13.38;2.63;;;15.80;99.90;;;;;;5070134;28;20107;-72
2023/10/05 03:37:31;;;;;;;11.57;2.70;;;15.80;99.90;;;;;;5069592;28;20380;-72
2023/10/05 03:42:29;;;;;;;13.40;3.25;;;15.80;99.90;;;;;;5069842;28;20480;-72
2023/10/05 03:45:04;;;;;;;17.27;3.03;;;15.80;99.90;;;;;;5070033;28;20013;-72
2023/10/05 03:47:39;;;;;;;14.10;2.67;;;15.80;99.90;;;;;;5069790;28;20021;-72
2023/10/05 03:50:09;;;;;;;13.30;2.63;;;15.80;99.90;;;;;;5069703;28;20503;-72
2023/10/05 03:52:34;;;;;;;16.92;2.83;;;15.80;99.90;;;;;;5067145;28;20075;-72
2023/10/05 03:55:01;;;;;;;14.90;3.28;;;15.70;99.90;;;;;;5068691;28;20048;-72
2023/10/05 03:57:31;;;;;;;14.30;2.60;;;15.70;99.90;;;;;;5070057;28;20045;-72
2023/10/05 03:59:58;;;;;;;19.70;2.92;;;15.80;99.90;;;;;;5066972;28;20445;-72
2023/10/05 04:02:25;;;;;;;11.60;2.60;;;15.70;99.90;;;;;;5071438;28;20111;-72
2023/10/05 04:04:51;;;;;;;16.67;2.70;;;15.70;99.90;;;;;;5072676;28;20025;-72
2023/10/05 04:07:16;;;;;;;15.05;2.60;;;15.70;99.90;;;;;;5073321;28;20024;-72
2023/10/05 04:09:42;;;;;;;15.00;2.58;;;15.80;99.90;;;;;;5073434;28;20626;-72
2023/10/05 04:12:10;;;;;;;11.57;2.80;;;15.80;99.90;;;;;;5073071;28;20023;-72
2023/10/05 04:14:38;;;;;;;12.93;2.95;;;15.70;99.90;;;;;;5072984;28;20017;-72
2023/10/05 04:17:07;;;;;;;15.85;2.80;;;15.80;99.90;;;;;;5072937;28;20027;-72
2023/10/05 04:19:34;;;;;;;9.25;2.30;;;15.70;99.90;;;;;;5073204;28;20035;-72
2023/10/05 04:21:59;;;;;;;13.48;3.15;;;15.70;99.90;;;;;;5072977;28;20039;-72
2023/10/05 04:24:26;;;;;;;14.85;2.67;;;15.70;99.90;;;;;;5072564;28;20111;-72
2023/10/05 04:26:53;;;;;;;16.35;2.63;;;15.70;99.90;;;;;;5073165;28;20146;-72
2023/10/05 04:29:22;;;;;;;7.93;2.28;;;15.70;99.90;;;;;;5072803;28;20019;-70
2023/10/05 04:31:51;;;;;;;9.77;2.28;;;15.60;99.90;;;;;;5073332;28;20023;-71
2023/10/05 04:34:21;;;;;;;16.30;2.78;;;15.70;99.90;;;;;;5072256;28;20082;-71
2023/10/05 04:36:48;;;;;;;9.35;2.70;;;15.60;99.90;;;;;;5071923;28;20379;-71
2023/10/05 04:39:25;;;;;;;10.75;2.88;;;15.60;99.90;;;;;;5072248;28;20459;-71
2023/10/05 04:41:51;;;;;;;9.20;2.20;;;15.60;99.90;;;;;;5070074;28;20024;-71
2023/10/05 04:44:17;;;;;;;14.40;2.42;;;15.60;99.90;;;;;;5070899;28;20012;-71
2023/10/05 04:46:49;;;;;;;11.60;2.30;;;15.60;99.90;;;;;;5070813;28;20021;-71
2023/10/05 04:49:16;;;;;;;16.52;2.60;;;15.60;99.90;;;;;;5067550;28;20188;-71
2023/10/05 04:51:43;;;;;;;14.77;2.60;;;15.60;99.90;;;;;;5072253;28;20031;-71
2023/10/05 04:54:18;;;;;;;16.30;2.60;;;15.60;99.90;;;;;;5071986;28;20044;-71
2023/10/05 05:07:01;;;;;;;13.13;2.70;;;15.60;99.90;;;;;;5070023;28;20551;-71
2023/10/05 05:09:29;;;;;;;16.83;2.80;;;15.60;99.90;;;;;;5071854;28;20025;-72
2023/10/05 05:11:56;;;;;;;13.07;2.80;;;15.60;99.90;;;;;;5070471;28;20545;-72
2023/10/05 05:14:23;;;;;;;11.70;2.50;;;15.60;99.90;;;;;;5069287;28;20043;-72
2023/10/05 05:16:52;;;;;;;12.65;2.50;;;15.60;99.90;;;;;;5071549;28;20452;-71
2023/10/05 05:19:18;;;;;;;14.60;2.25;;;15.60;99.90;;;;;;5061145;28;20674;-73
2023/10/05 05:21:44;;;;;;;13.88;2.78;;;15.50;99.90;;;;;;5073115;28;20533;-72
2023/10/05 05:24:13;;;;;;;14.00;2.65;;;15.50;99.90;;;;;;5073084;28;20409;-72
2023/10/05 05:26:39;;;;;;;17.88;2.88;;;15.50;99.90;;;;;;5072127;28;20028;-72
2023/10/05 05:29:04;;;;;;;18.50;3.10;;;15.50;99.90;;;;;;5071749;28;20050;-72
2023/10/05 05:31:30;;;;;;;12.75;2.88;;;15.50;99.90;;;;;;5086631;28;20460;-72
2023/10/05 05:33:56;;;;;;;13.43;2.33;;;15.50;99.90;;;;;;5071455;28;20137;-72
2023/10/05 05:36:22;;;;;;;10.98;2.55;;;15.50;99.90;;;;;;5069067;28;20498;-72
2023/10/05 05:38:47;;;;;;;11.15;2.50;;;15.50;99.90;;;;;;5071461;28;20027;-72
2023/10/05 05:41:20;;;;;;;13.85;3.40;;;15.50;99.90;;;;;;5068043;28;20530;-72
2023/10/05 05:43:46;;;;;;;12.07;2.50;;;15.50;99.90;;;;;;5069711;28;20029;-72
2023/10/05 05:46:13;;;;;;;11.00;2.65;;;15.50;99.90;;;;;;5070314;28;20127;-72
2023/10/05 05:48:43;;;;;;;13.73;2.22;;;15.50;99.90;;;;;;5064644;28;20075;-72
2023/10/05 05:51:15;;;;;;;18.45;2.70;;;15.50;99.90;;;;;;5068614;28;20028;-73
2023/10/05 05:53:43;;;;;;;13.15;2.20;;;15.50;99.90;;;;;;5069924;28;20032;-73
2023/10/05 05:56:09;;;;;;;13.52;2.67;;;15.50;99.90;;;;;;5070381;28;20375;-73
2023/10/05 05:58:35;;;;;;;15.52;2.38;;;15.50;99.90;;;;;;5068613;28;20024;-73
2023/10/05 06:01:00;;;;;;;14.23;2.40;;;15.50;99.90;;;;;;5069281;28;20060;-73
2023/10/05 06:03:27;;;;;;;15.20;2.70;;;15.50;99.90;;;;;;5069873;28;20434;-73
2023/10/05 06:05:53;;;;;;;11.57;2.60;;;15.50;99.90;;;;;;5070659;28;20095;-73
2023/10/05 06:08:19;;;;;;;12.20;2.47;;;15.50;99.90;;;;;;5069909;28;20025;-73
2023/10/05 06:10:46;;;;;;;16.73;2.50;;;15.50;99.90;;;;;;5068686;28;20246;-73
2023/10/05 06:13:13;;;;;;;13.73;2.80;;;15.50;99.90;;;;;;5069548;28;20013;-73
2023/10/05 06:15:39;;;;;;;16.58;2.42;;;15.50;99.90;;;;;;5070718;28;20061;-71
2023/10/05 06:18:05;;;;;;;11.90;2.33;;;15.60;99.90;;;;;;5070187;28;20583;-71
2023/10/05 06:20:31;;;;;;;8.50;2.17;;;15.60;99.90;;;;;;5066904;28;20021;-73
2023/10/05 06:22:58;;;;;;;15.18;2.72;;;15.70;99.90;;;;;;5070096;28;20031;-71
2023/10/05 06:25:25;;;;;;;8.88;2.15;;;15.70;99.90;;;;;;5068235;28;20044;-71
2023/10/05 06:27:51;;;;;;;10.93;2.47;;;15.70;99.90;;;;;;5070992;28;20034;-71
2023/10/05 06:30:17;;;;;;;14.90;2.53;;;15.70;99.90;;;;;;5068858;28;20024;-71
2023/10/05 06:32:43;;;;;;;12.18;2.83;;;15.70;99.90;;;;;;5069192;28;20074;-71
2023/10/05 06:35:09;;;;;;;13.35;2.58;;;15.70;99.90;;;;;;5065388;28;20021;-72
2023/10/05 06:37:37;;;;;;;12.85;2.67;;;15.80;99.90;;;;;;5070449;28;20405;-71
2023/10/05 06:40:09;;;;;;;14.75;2.63;;;15.70;99.90;;;;;;5070224;28;20411;-71
2023/10/05 06:42:37;;;;;;;12.40;2.65;;;15.80;99.90;;;;;;5069988;28;20495;-71
2023/10/05 06:45:03;;;;;;;11.90;2.60;;;15.80;99.90;;;;;;5070274;28;20027;-71
2023/10/05 06:47:38;;;;;;;16.30;2.38;;;15.80;99.90;;;;;;5069531;28;20020;-73
2023/10/05 06:50:08;;;;;;;10.85;2.47;;;15.80;99.90;;;;;;5065878;28;20025;-71
2023/10/05 06:52:36;;;;;;;11.15;2.45;;;15.80;99.90;;;;;;5070371;28;20024;-71
2023/10/05 06:55:07;;;;;;;11.50;2.30;;;15.80;99.90;;;;;;5070342;28;20024;-71
2023/10/05 06:57:35;;;;;;;12.80;2.55;;;15.90;99.90;;;;;;5069595;28;20024;-71
2023/10/05 07:00:11;;;;;;;17.38;2.90;;;15.90;99.90;;;;;;5064926;28;20017;-71
2023/10/05 07:02:40;;;;;;;12.23;2.78;;;15.90;99.90;;;;;;5069936;28;20487;-71
2023/10/05 07:05:07;;;;;;;12.73;2.30;;;15.90;99.90;;;;;;5069591;28;20020;-71
2023/10/05 07:07:34;;;;;;;12.07;2.25;;;16.00;99.90;;;;;;5070105;28;20028;-71
2023/10/05 07:10:01;;;;;;;14.45;2.67;;;16.00;99.90;;;;;;5069695;28;20047;-71
2023/10/05 07:12:26;;;;;;;12.02;2.42;;;16.00;99.90;;;;;;5048620;28;20056;-71
2023/10/05 07:14:52;;;;;;;11.95;2.30;;;16.00;99.90;;;;;;5068526;28;20428;-71
2023/10/05 07:17:17;;;;;;;20.25;2.58;;;16.10;99.90;;;;;;5068785;28;20046;-71
2023/10/05 07:19:48;;;;;;;11.38;2.65;;;16.10;99.90;;;;;;5066570;28;20499;-71
2023/10/05 07:22:14;;;;;;;14.70;2.75;;;16.20;99.90;;;;;;5069382;28;20033;-71
2023/10/05 07:24:41;;;;;;;9.10;2.35;;;16.20;99.90;;;;;;5060373;28;20040;-71
2023/10/05 07:27:07;;;;;;;12.02;2.40;;;16.20;99.90;;;;;;5068115;28;20103;-71
2023/10/05 07:29:32;;;;;;;9.98;2.28;;;16.30;99.90;;;;;;5069532;28;20238;-71
2023/10/05 07:31:58;;;;;;;13.00;2.92;;;16.30;99.90;;;;;;5069458;28;20021;-72
2023/10/05 07:34:24;;;;;;;11.25;2.58;;;16.30;99.90;;;;;;5069434;28;20021;-72
2023/10/05 07:36:50;;;;;;;8.93;2.55;;;16.40;99.90;;;;;;5071921;28;20506;-72
2023/10/05 07:39:18;;;;;;;9.70;2.67;;;16.40;99.90;;;;;;5073328;28;20021;-72
2023/10/05 07:41:46;;;;;;;13.65;2.53;;;16.50;99.90;;;;;;5071014;28;20816;-72
2023/10/05 07:44:11;;;;;;;13.05;2.63;;;16.50;99.90;;;;;;5073690;28;20021;-72
2023/10/05 07:46:38;;;;;;;11.65;2.58;;;16.50;99.90;;;;;;5073535;28;20043;-72
2023/10/05 07:49:04;;;;;;;12.77;2.50;;;16.60;99.90;;;;;;5072534;28;20024;-72
2023/10/05 07:51:31;;;;;;;12.48;2.55;;;16.60;99.90;;;;;;5073362;28;20029;-72
2023/10/05 07:53:58;;;;;;;14.35;2.63;;;16.70;99.90;;;;;;5073541;28;20025;-72
2023/10/05 07:56:24;;;;;;;15.35;2.65;;;16.80;99.90;;;;;;5073054;28;20020;-72
2023/10/05 07:58:50;;;;;;;11.35;2.60;;;16.80;99.90;;;;;;5072710;28;20020;-72
2023/10/05 08:01:18;;;;;;;15.15;2.85;;;16.90;99.90;;;;;;5073349;28;20029;-72
2023/10/05 08:03:44;;;;;;;16.80;2.83;;;16.90;99.90;;;;;;5072928;28;20062;-72
2023/10/05 08:06:15;;;;;;;15.63;3.15;;;17.00;99.90;;;;;;5072353;28;20535;-72
2023/10/05 08:08:44;;;;;;;17.52;3.15;;;17.10;99.90;;;;;;5073023;28;20070;-72
2023/10/05 08:11:15;;;;;;;14.57;3.20;;;17.20;99.90;;;;;;5072775;28;20032;-72
2023/10/05 08:13:43;;;;;;;11.57;2.75;;;17.30;99.90;;;;;;5072355;28;20060;-72
2023/10/05 08:16:09;;;;;;;14.00;3.20;;;17.30;99.90;;;;;;5067364;28;20035;-72
2023/10/05 08:18:36;;;;;;;9.88;2.60;;;17.40;99.90;;;;;;5071273;28;20025;-72
2023/10/05 08:21:04;;;;;;;12.88;2.72;;;17.50;99.90;;;;;;5074440;28;20038;-72
2023/10/05 08:23:30;;;;;;;13.98;3.00;;;17.50;99.90;;;;;;5073212;28;20020;-72
2023/10/05 08:25:58;;;;;;;12.65;2.88;;;17.50;99.90;;;;;;5072663;28;20025;-72
2023/10/05 08:28:24;;;;;;;15.13;2.80;;;17.50;99.90;;;;;;5073000;28;20032;-72
2023/10/05 08:31:05;;;;;;;14.07;3.30;;;17.50;99.90;;;;;;5072899;28;20033;-72
2023/10/05 08:33:35;;;;;;;15.32;2.92;;;17.50;99.90;;;;;;5071825;28;20056;-72
2023/10/05 08:36:11;;;;;;;13.02;3.22;;;17.50;99.90;;;;;;5071074;28;20020;-72
2023/10/05 08:38:37;;;;;;;12.20;2.90;;;17.50;99.90;;;;;;5066568;28;20043;-72
2023/10/05 08:41:11;;;;;;;14.50;2.85;;;17.50;99.90;;;;;;5072320;28;20029;-72
2023/10/05 08:43:41;;;;;;;16.17;2.80;;;17.50;99.90;;;;;;5072587;28;20025;-72
2023/10/05 08:46:13;;;;;;;15.43;2.83;;;17.50;99.90;;;;;;5071927;28;20432;-72
2023/10/05 08:48:38;;;;;;;15.25;2.95;;;17.50;99.90;;;;;;5071398;28;20467;-72
2023/10/05 08:51:11;;;;;;;15.27;2.90;;;17.60;99.90;;;;;;5072369;28;20051;-72
2023/10/05 08:53:54;;;;;;;18.70;3.03;;;17.60;99.90;;;;;;5072612;28;20027;-72
2023/10/05 08:56:20;;;;;;;14.85;3.05;;;17.60;99.90;;;;;;5071927;28;20029;-72
2023/10/05 08:58:48;;;;;;;12.27;2.97;;;17.60;99.90;;;;;;5071985;28;20056;-72
2023/10/05 09:01:24;;;;;;;17.10;3.10;;;17.70;99.90;;;;;;5069906;28;20033;-72
2023/10/05 09:04:01;;;;;;;18.35;3.17;;;17.70;99.90;;;;;;5071735;28;20024;-71
2023/10/05 09:06:30;;;;;;;13.02;2.75;;;17.70;99.90;;;;;;5071682;28;20094;-72
2023/10/05 09:11:31;;;;;;;;;;;17.70;99.90;;;;;;5072557;28;20078;-71
2023/10/05 09:14:13;;;;;;;17.95;2.75;;;17.70;99.90;;;;;;5071854;28;19920;-72
2023/10/05 09:16:43;;;;;;;9.30;2.63;;;17.70;99.90;;;;;;5067463;28;20028;-72
2023/10/05 09:19:17;;;;;;;12.57;2.63;;;17.80;99.90;;;;;;5071591;28;20033;-72
2023/10/05 09:21:51;;;;;;;16.65;2.95;;;17.80;99.90;;;;;;5071798;28;20488;-72
2023/10/05 09:24:21;;;;;;;14.27;3.10;;;17.80;99.90;;;;;;5069197;28;20116;-72
2023/10/05 09:26:58;;;;;;;11.93;3.03;;;17.70;99.90;;;;;;5071895;28;20024;-71
2023/10/05 09:29:32;;;;;;;19.63;3.42;;;17.80;99.90;;;;;;5076967;28;20080;-72
2023/10/05 09:31:59;;;;;;;12.55;2.70;;;17.70;99.90;;;;;;5081746;28;20028;-72
2023/10/05 09:34:34;;;;;;;13.93;2.55;;;17.70;99.90;;;;;;5073647;28;20052;-72
2023/10/05 09:37:05;;;;;;;18.42;2.90;;;17.80;99.90;;;;;;5071815;28;20100;-72
2023/10/05 09:39:42;;;;;;;16.60;2.80;;;17.80;99.90;;;;;;5071523;28;20032;-72
2023/10/05 09:42:16;;;;;;;18.25;3.00;;;17.80;99.90;;;;;;5071199;28;20075;-72
2023/10/05 09:44:51;;;;;;;15.77;2.78;;;17.80;99.90;;;;;;5069993;28;20028;-72
2023/10/05 09:47:20;;;;;;;11.73;2.63;;;17.80;99.90;;;;;;5070203;28;20414;-72
2023/10/05 09:49:48;;;;;;;15.55;2.88;;;17.80;99.90;;;;;;5070926;28;20102;-72
2023/10/05 09:52:15;;;;;;;14.63;3.10;;;17.90;99.90;;;;;;5070022;28;20024;-72
2023/10/05 09:54:42;;;;;;;13.77;2.78;;;17.90;99.90;;;;;;5070678;28;20016;-72
2023/10/05 09:57:12;;;;;;;11.57;2.60;;;17.90;99.90;;;;;;5070016;28;20121;-72
2023/10/05 09:59:41;;;;;;;14.30;2.95;;;18.00;99.90;;;;;;5069747;28;20039;-72
2023/10/05 10:02:12;;;;;;;12.63;2.88;;;18.00;99.90;;;;;;5070217;28;20030;-71
2023/10/05 10:04:39;;;;;;;13.98;2.33;;;18.00;99.90;;;;;;5060997;28;20039;-72
2023/10/05 10:07:15;;;;;;;17.55;3.00;;;18.10;99.90;;;;;;5068909;28;20143;-72
2023/10/05 10:09:47;;;;;;;13.52;2.95;;;18.10;99.90;;;;;;5070364;28;20222;-72
2023/10/05 10:12:43;;;;;;;14.55;3.10;;;18.10;99.90;;;;;;5071583;28;20043;-71
2023/10/05 10:15:24;;;;;;;13.82;2.65;;;18.10;99.90;;;;;;5071932;28;20386;-71
2023/10/05 10:18:03;;;;;;;13.95;2.80;;;18.10;99.90;;;;;;5061541;28;20021;-71
2023/10/05 10:20:35;;;;;;;14.43;2.72;;;18.10;99.90;;;;;;5068571;28;20168;-71
2023/10/05 10:23:18;;;;;;;11.85;2.55;;;18.20;99.90;;;;;;5072012;28;20345;-73
2023/10/05 10:25:45;;;;;;;10.38;2.50;;;18.20;99.90;;;;;;5067443;28;20095;-71
2023/10/05 10:28:20;;;;;;;13.55;2.72;;;18.20;99.90;;;;;;5072137;28;20028;-71
2023/10/05 10:31:13;;;;;;;10.87;2.63;;;18.20;99.90;;;;;;5071972;28;20024;-71
2023/10/05 10:33:40;;;;;;;10.43;2.50;;;18.20;99.90;;;;;;5071848;28;20262;-71
2023/10/05 10:36:18;;;;;;;8.88;2.67;;;18.20;99.90;;;;;;5072043;28;20044;-71
2023/10/05 10:38:50;;;;;;;11.20;2.83;;;18.30;99.90;;;;;;5062544;28;20119;-71
2023/10/05 10:41:17;;;;;;;16.23;2.90;;;18.30;99.90;;;;;;5058536;28;20029;-71
2023/10/05 10:44:05;;;;;;;13.45;2.58;;;18.30;99.90;;;;;;5071123;28;20050;-72
2023/10/05 10:46:33;;;;;;;11.85;2.80;;;18.30;99.90;;;;;;5060425;28;20071;-71
2023/10/05 10:49:00;;;;;;;13.75;2.70;;;18.30;99.90;;;;;;5070993;28;20454;-71
2023/10/05 10:51:31;;;;;;;12.02;2.75;;;18.30;99.90;;;;;;5070856;28;20033;-70
2023/10/05 10:54:02;;;;;;;12.45;2.53;;;18.30;99.90;;;;;;5071784;28;20031;-70
2023/10/05 10:56:34;;;;;;;10.88;2.67;;;18.40;99.90;;;;;;5071353;28;20051;-72
2023/10/05 10:59:13;;;;;;;11.95;2.78;;;18.50;99.90;;;;;;5068992;28;20021;-72
2023/10/05 11:01:43;;;;;;;13.95;3.00;;;18.50;99.90;;;;;;5067895;28;20032;-72
2023/10/05 11:04:26;;;;;;;14.50;3.22;;;18.60;99.90;;;;;;5071723;28;20038;-72
2023/10/05 11:06:54;;;;;;;14.32;3.30;;;18.80;99.90;;;;;;5070852;28;20045;-72
2023/10/05 11:09:29;;;;;;;12.52;3.05;;;18.90;99.90;;;;;;5070815;28;20105;-72
2023/10/05 11:12:08;;;;;;;10.18;2.42;;;19.00;99.90;;;;;;5071047;28;20039;-72
2023/10/05 11:14:35;;;;;;;8.00;2.33;;;19.00;99.90;;;;;;5071523;28;20101;-72
2023/10/05 11:17:03;;;;;;;11.80;2.80;;;19.20;99.90;;;;;;5065352;28;20040;-73
2023/10/05 11:19:38;;;;;;;8.38;2.25;;;19.30;99.90;;;;;;5071352;28;20029;-72
2023/10/05 11:22:13;;;;;;;8.10;2.72;;;19.40;99.90;;;;;;5065525;28;20044;-72
2023/10/05 11:24:59;;;;;;;10.90;2.80;;;19.40;99.90;;;;;;5067862;28;20046;-72
2023/10/05 11:27:25;;;;;;;13.02;2.58;;;19.50;99.90;;;;;;5069897;28;20027;-72
2023/10/05 11:29:55;;;;;;;11.48;2.30;;;19.60;99.90;;;;;;5070912;28;20508;-72
2023/10/05 11:32:24;;;;;;;9.43;2.50;;;19.70;99.90;;;;;;5070729;28;20139;-72
2023/10/05 11:34:55;;;;;;;11.20;2.88;;;19.80;99.90;;;;;;5070834;28;20033;-72
2023/10/05 11:37:23;;;;;;;10.43;2.78;;;20.00;99.90;;;;;;5065703;28;20062;-72
2023/10/05 11:39:49;;;;;;;11.00;2.58;;;20.00;99.90;;;;;;5067707;28;20024;-72
2023/10/05 11:42:25;;;;;;;10.27;2.58;;;20.00;99.90;;;;;;5068673;28;20032;-72
2023/10/05 11:45:18;;;;;;;11.05;2.70;;;19.90;99.90;;;;;;5070191;28;20520;-72
2023/10/05 11:47:51;;;;;;;9.50;2.50;;;19.90;99.90;;;;;;5067100;28;20050;-72
2023/10/05 11:50:51;;;;;;;13.38;2.65;;;19.80;99.90;;;;;;5071315;28;20070;-69
2023/10/05 11:53:12;;;;;;;7.65;2.75;;;19.60;99.90;;;;;;5069724;28;20056;-72
2023/10/05 11:55:39;;;;;;;8.90;2.53;;;19.50;99.90;;;;;;5070645;28;20098;-73
2023/10/05 11:58:08;;;;;;;14.48;2.67;;;19.50;99.90;;;;;;5068223;28;20022;-72
2023/10/05 12:00:35;;;;;;;11.82;2.78;;;19.50;99.90;;;;;;5067009;28;20523;-73
2023/10/05 12:03:01;;;;;;;9.80;2.50;;;19.50;99.90;;;;;;5069566;28;20025;-72
2023/10/05 12:05:29;;;;;;;8.07;2.40;;;19.50;99.90;;;;;;5065037;28;20072;-72
2023/10/05 12:07:59;;;;;;;7.80;2.60;;;19.60;99.90;;;;;;5066830;28;20040;-73
2023/10/05 12:10:31;;;;;;;11.50;2.42;;;19.60;99.90;;;;;;5068712;28;20085;-72
2023/10/05 12:13:01;;;;;;;10.23;2.35;;;19.70;99.90;;;;;;5070178;28;20047;-72
2023/10/05 12:15:28;;;;;;;9.68;2.78;;;19.90;99.90;;;;;;5069220;28;20696;-72
2023/10/05 12:17:54;;;;;;;11.30;2.60;;;20.00;99.90;;;;;;5070585;28;20055;-73
2023/10/05 12:20:21;;;;;;;9.48;2.42;;;20.10;99.90;;;;;;5070048;28;20025;-73
2023/10/05 12:22:49;;;;;;;9.18;2.90;;;20.10;99.90;;;;;;5077129;28;20044;-71
2023/10/05 12:25:19;;;;;;;11.35;2.67;;;20.00;99.90;;;;;;5075312;28;20048;-71
2023/10/05 12:27:47;;;;;;;10.93;2.47;;;19.80;99.90;;;;;;5075322;28;20379;-71
2023/10/05 12:30:16;;;;;;;8.02;2.42;;;19.70;99.90;;;;;;5074710;28;20337;-72
2023/10/05 12:32:41;;;;;;;8.02;2.42;;;19.60;99.90;;;;;;5071929;28;20035;-71
2023/10/05 12:35:18;;;;;;;16.30;2.47;;;19.50;99.90;;;;;;5073139;28;20372;-72
2023/10/05 12:37:46;;;;;;;8.82;2.42;;;19.60;99.90;;;;;;5062437;28;20028;-71
2023/10/05 12:40:18;;;;;;;8.43;2.40;;;19.60;99.90;;;;;;5072739;28;20055;-72
2023/10/05 12:42:53;;;;;;;11.38;2.60;;;19.60;99.90;;;;;;5071030;28;20139;-72
2023/10/05 12:45:22;;;;;;;8.57;2.30;;;19.60;99.90;;;;;;5072138;28;20021;-72
2023/10/05 12:47:57;;;;;;;10.50;2.60;;;19.60;99.90;;;;;;5073826;28;20048;-72
2023/10/05 12:50:28;;;;;;;7.65;2.42;;;19.60;99.90;;;;;;5071332;28;20031;-71
2023/10/05 12:52:54;;;;;;;12.88;2.80;;;19.60;99.90;;;;;;5073537;28;20165;-71
2023/10/05 12:55:22;;;;;;;6.38;2.13;;;19.50;99.90;;;;;;5074256;28;20029;-72
2023/10/05 12:57:52;;;;;;;8.80;2.47;;;19.40;99.90;;;;;;5073638;28;20056;-71
2023/10/05 13:00:22;;;;;;;6.60;2.10;;;19.40;99.90;;;;;;5073544;28;20074;-71
2023/10/05 13:02:52;;;;;;;11.48;2.80;;;19.40;99.90;;;;;;5073612;28;20032;-72
2023/10/05 13:05:29;;;;;;;11.00;2.25;;;19.30;99.90;;;;;;5068860;28;20408;-71
2023/10/05 13:07:55;;;;;;;11.73;2.58;;;19.30;99.90;;;;;;5062669;28;20507;-72
2023/10/05 13:10:21;;;;;;;7.93;2.60;;;19.30;99.90;;;;;;5072027;28;20029;-71
2023/10/05 13:12:51;;;;;;;11.95;2.55;;;19.20;99.90;;;;;;5072596;28;20020;-71
2023/10/05 13:15:19;;;;;;;10.27;2.42;;;19.20;99.90;;;;;;5073722;28;20107;-71
2023/10/05 13:17:46;;;;;;;11.48;2.70;;;19.20;99.90;;;;;;5073132;28;20020;-71
2023/10/05 13:20:15;;;;;;;13.68;2.70;;;19.20;99.90;;;;;;5071116;28;20024;-71